sensor_id;sensor_type;location;lat;lon;timestamp;pressure;altitude;pressure_sealevel;temperature;humidity
8697;BME280;4385;48.848;8.924;2024-02-26T00:00:02;95503.22;;;17.39;100.00
8697;BME280;4385;48.848;8.924;2024-02-26T00:02:28;95496.56;;;17.36;100.00
8697;BME280;4385;48.848;8.924;2024-02-26T00:04:53;95498.34;;;17.34;100.00
8697;BME280;4385;48.848;8.924;2024-02-26T00:07:18;95483.16;;;17.32;100.00
8697;BME280;4385;48.848;8.924;2024-02-26T00:09:44;95490.03;;;17.30;100.00
8697;BME280;4385;48.848;8.924;2024-02-26T00:12:09;95492.66;;;17.29;100.00
8697;BME280;4385;48.848;8.924;2024-02-26T00:14:34;95486.75;;;17.28;100.00
8697;BME280;4385;48.848;8.924;2024-02-26T00:17:00;95491.09;;;17.26;100.00
8697;BME280;4385;48.848;8.924;2024-02-26T00:19:25;95490.31;;;17.24;100.00
8697;BME280;4385;48.848;8.924;2024-02-26T00:21:50;95486.06;;;17.25;100.00
8697;BME280;4385;48.848;8.924;2024-02-26T00:24:16;95489.59;;;17.22;100.00
8697;BME280;4385;48.848;8.924;2024-02-26T00:26:41;95497.22;;;17.22;100.00
8697;BME280;4385;48.848;8.924;2024-02-26T00:29:06;95497.38;;;17.19;100.00
8697;BME280;4385;48.848;8.924;2024-02-26T00:31:32;95501.63;;;17.18;100.00
8697;BME280;4385;48.848;8.924;2024-02-26T00:33:57;95501.63;;;17.18;100.00
8697;BME280;4385;48.848;8.924;2024-02-26T00:36:22;95493.25;;;17.16;100.00
8697;BME280;4385;48.848;8.924;2024-02-26T00:38:48;95494.06;;;17.17;100.00
8697;BME280;4385;48.848;8.924;2024-02-26T00:41:16;95507.72;;;17.16;100.00
8697;BME280;4385;48.848;8.924;2024-02-26T00:43:42;95509.50;;;17.14;100.00
8697;BME280;4385;48.848;8.924;2024-02-26T00:46:07;95502.00;;;17.11;100.00
8697;BME280;4385;48.848;8.924;2024-02-26T00:48:33;95499.47;;;17.11;100.00
8697;BME280;4385;48.848;8.924;2024-02-26T00:50:58;95501.25;;;17.08;100.00
8697;BME280;4385;48.848;8.924;2024-02-26T00:53:23;95500.50;;;17.06;100.00
8697;BME280;4385;48.848;8.924;2024-02-26T00:55:50;95509.00;;;17.05;100.00
8697;BME280;4385;48.848;8.924;2024-02-26T00:58:15;95511.63;;;17.04;100.00
8697;BME280;4385;48.848;8.924;2024-02-26T01:00:40;95508.41;;;17.00;100.00
8697;BME280;4385;48.848;8.924;2024-02-26T01:03:06;95498.31;;;16.99;100.00
8697;BME280;4385;48.848;8.924;2024-02-26T01:05:31;95512.81;;;16.97;100.00
8697;BME280;4385;48.848;8.924;2024-02-26T01:07:56;95503.56;;;16.95;100.00
8697;BME280;4385;48.848;8.924;2024-02-26T01:10:22;95497.69;;;16.93;100.00
8697;BME280;4385;48.848;8.924;2024-02-26T01:12:47;95496.88;;;16.93;100.00
8697;BME280;4385;48.848;8.924;2024-02-26T01:15:12;95500.31;;;16.92;100.00
8697;BME280;4385;48.848;8.924;2024-02-26T01:17:38;95495.22;;;16.92;100.00
8697;BME280;4385;48.848;8.924;2024-02-26T01:20:04;95485.06;;;16.92;100.00
8697;BME280;4385;48.848;8.924;2024-02-26T01:22:30;95486.03;;;16.89;100.00
8697;BME280;4385;48.848;8.924;2024-02-26T01:24:55;95485.19;;;16.89;100.00
8697;BME280;4385;48.848;8.924;2024-02-26T01:27:21;95482.72;;;16.87;100.00
8697;BME280;4385;48.848;8.924;2024-02-26T01:29:51;95485.34;;;16.86;100.00
8697;BME280;4385;48.848;8.924;2024-02-26T01:32:17;95488.78;;;16.85;100.00
8697;BME280;4385;48.848;8.924;2024-02-26T01:34:42;95495.53;;;16.86;100.00
8697;BME280;4385;48.848;8.924;2024-02-26T01:37:07;95506.69;;;16.83;100.00
8697;BME280;4385;48.848;8.924;2024-02-26T01:39:32;95506.75;;;16.81;100.00
8697;BME280;4385;48.848;8.924;2024-02-26T01:41:58;95512.72;;;16.80;100.00
8697;BME280;4385;48.848;8.924;2024-02-26T01:44:23;95529.78;;;16.78;100.00
8697;BME280;4385;48.848;8.924;2024-02-26T01:46:48;95530.66;;;16.77;100.00
8697;BME280;4385;48.848;8.924;2024-02-26T01:49:14;95527.31;;;16.77;100.00
8697;BME280;4385;48.848;8.924;2024-02-26T01:51:42;95537.63;;;16.74;100.00
8697;BME280;4385;48.848;8.924;2024-02-26T01:54:08;95530.88;;;16.73;100.00
8697;BME280;4385;48.848;8.924;2024-02-26T01:56:35;95535.09;;;16.74;100.00
8697;BME280;4385;48.848;8.924;2024-02-26T01:59:01;95550.41;;;16.72;100.00
8697;BME280;4385;48.848;8.924;2024-02-26T02:01:28;95544.41;;;16.73;100.00
8697;BME280;4385;48.848;8.924;2024-02-26T02:03:54;95534.31;;;16.72;100.00
8697;BME280;4385;48.848;8.924;2024-02-26T02:06:21;95536.88;;;16.72;100.00
8697;BME280;4385;48.848;8.924;2024-02-26T02:08:46;95542.84;;;16.70;100.00
8697;BME280;4385;48.848;8.924;2024-02-26T02:11:12;95543.66;;;16.71;100.00
8697;BME280;4385;48.848;8.924;2024-02-26T02:13:37;95542.03;;;16.70;100.00
8697;BME280;4385;48.848;8.924;2024-02-26T02:16:04;95553.84;;;16.71;100.00
8697;BME280;4385;48.848;8.924;2024-02-26T02:18:29;95553.91;;;16.69;100.00
8697;BME280;4385;48.848;8.924;2024-02-26T02:20:55;95557.41;;;16.67;100.00
8697;BME280;4385;48.848;8.924;2024-02-26T02:23:21;95555.78;;;16.66;100.00
8697;BME280;4385;48.848;8.924;2024-02-26T02:25:47;95552.47;;;16.64;100.00
8697;BME280;4385;48.848;8.924;2024-02-26T02:28:12;95560.09;;;16.64;100.00
8697;BME280;4385;48.848;8.924;2024-02-26T02:30:37;95555.00;;;16.64;100.00
8697;BME280;4385;48.848;8.924;2024-02-26T02:33:03;95549.16;;;16.62;100.00
8697;BME280;4385;48.848;8.924;2024-02-26T02:35:29;95545.88;;;16.60;100.00
8697;BME280;4385;48.848;8.924;2024-02-26T02:37:56;95544.28;;;16.57;100.00
8697;BME280;4385;48.848;8.924;2024-02-26T02:40:22;95549.22;;;16.60;100.00
8697;BME280;4385;48.848;8.924;2024-02-26T02:42:47;95553.50;;;16.60;100.00
8697;BME280;4385;48.848;8.924;2024-02-26T02:45:12;95552.63;;;16.61;100.00
8697;BME280;4385;48.848;8.924;2024-02-26T02:47:37;95550.13;;;16.59;100.00
8697;BME280;4385;48.848;8.924;2024-02-26T02:50:03;95547.59;;;16.59;100.00
8697;BME280;4385;48.848;8.924;2024-02-26T02:52:29;95551.13;;;16.56;100.00
8697;BME280;4385;48.848;8.924;2024-02-26T02:54:54;95549.44;;;16.55;100.00
8697;BME280;4385;48.848;8.924;2024-02-26T02:57:19;95545.19;;;16.56;100.00
8697;BME280;4385;48.848;8.924;2024-02-26T02:59:44;95542.59;;;16.57;100.00
8697;BME280;4385;48.848;8.924;2024-02-26T03:02:10;95541.09;;;16.53;100.00
8697;BME280;4385;48.848;8.924;2024-02-26T03:04:35;95542.72;;;16.54;100.00
8697;BME280;4385;48.848;8.924;2024-02-26T03:07:00;95537.63;;;16.54;100.00
8697;BME280;4385;48.848;8.924;2024-02-26T03:09:26;95529.09;;;16.55;100.00
8697;BME280;4385;48.848;8.924;2024-02-26T03:11:51;95531.66;;;16.55;100.00
8697;BME280;4385;48.848;8.924;2024-02-26T03:14:16;95530.00;;;16.54;100.00
8697;BME280;4385;48.848;8.924;2024-02-26T03:16:41;95531.78;;;16.52;100.00
8697;BME280;4385;48.848;8.924;2024-02-26T03:19:07;95529.31;;;16.51;100.00
8697;BME280;4385;48.848;8.924;2024-02-26T03:21:32;95524.22;;;16.51;100.00
8697;BME280;4385;48.848;8.924;2024-02-26T03:23:57;95526.84;;;16.49;100.00
8697;BME280;4385;48.848;8.924;2024-02-26T03:26:22;95530.28;;;16.48;100.00
8697;BME280;4385;48.848;8.924;2024-02-26T03:28:48;95526.19;;;16.45;100.00
8697;BME280;4385;48.848;8.924;2024-02-26T03:31:13;95520.25;;;16.45;100.00
8697;BME280;4385;48.848;8.924;2024-02-26T03:33:39;95529.59;;;16.44;100.00
8697;BME280;4385;48.848;8.924;2024-02-26T03:36:04;95522.94;;;16.42;100.00
8697;BME280;4385;48.848;8.924;2024-02-26T03:38:30;95514.56;;;16.40;100.00
8697;BME280;4385;48.848;8.924;2024-02-26T03:40:55;95510.38;;;16.39;100.00
8697;BME280;4385;48.848;8.924;2024-02-26T03:43:21;95506.91;;;16.40;100.00
8697;BME280;4385;48.848;8.924;2024-02-26T03:45:46;95494.28;;;16.38;100.00
8697;BME280;4385;48.848;8.924;2024-02-26T03:48:11;95489.28;;;16.37;100.00
8697;BME280;4385;48.848;8.924;2024-02-26T03:50:37;95487.56;;;16.37;100.00
8697;BME280;4385;48.848;8.924;2024-02-26T03:53:02;95480.91;;;16.35;100.00
8697;BME280;4385;48.848;8.924;2024-02-26T03:55:27;95483.47;;;16.35;100.00
8697;BME280;4385;48.848;8.924;2024-02-26T03:57:53;95471.63;;;16.33;100.00
8697;BME280;4385;48.848;8.924;2024-02-26T04:00:19;95471.69;;;16.32;100.00
8697;BME280;4385;48.848;8.924;2024-02-26T04:02:44;95479.25;;;16.33;100.00
8697;BME280;4385;48.848;8.924;2024-02-26T04:05:10;95477.59;;;16.32;100.00
8697;BME280;4385;48.848;8.924;2024-02-26T04:07:36;95467.59;;;16.29;100.00
8697;BME280;4385;48.848;8.924;2024-02-26T04:10:01;95473.44;;;16.31;100.00
8697;BME280;4385;48.848;8.924;2024-02-26T04:12:29;95475.22;;;16.29;100.00
8697;BME280;4385;48.848;8.924;2024-02-26T04:14:55;95469.34;;;16.27;100.00
8697;BME280;4385;48.848;8.924;2024-02-26T04:17:20;95478.72;;;16.27;100.00
8697;BME280;4385;48.848;8.924;2024-02-26T04:19:45;95480.44;;;16.26;100.00
8697;BME280;4385;48.848;8.924;2024-02-26T04:22:10;95479.66;;;16.24;100.00
8697;BME280;4385;48.848;8.924;2024-02-26T04:24:36;95478.84;;;16.24;100.00
8697;BME280;4385;48.848;8.924;2024-02-26T04:27:01;95480.50;;;16.25;100.00
8697;BME280;4385;48.848;8.924;2024-02-26T04:29:27;95480.56;;;16.23;100.00
8697;BME280;4385;48.848;8.924;2024-02-26T04:31:52;95483.09;;;16.23;100.00
8697;BME280;4385;48.848;8.924;2024-02-26T04:34:17;95483.09;;;16.23;100.00
8697;BME280;4385;48.848;8.924;2024-02-26T04:36:43;95492.44;;;16.23;100.00
8697;BME280;4385;48.848;8.924;2024-02-26T04:39:08;95499.31;;;16.20;100.00
8697;BME280;4385;48.848;8.924;2024-02-26T04:41:33;95495.03;;;16.21;100.00
8697;BME280;4385;48.848;8.924;2024-02-26T04:43:59;95494.31;;;16.19;100.00
8697;BME280;4385;48.848;8.924;2024-02-26T04:46:24;95490.94;;;16.18;100.00
8697;BME280;4385;48.848;8.924;2024-02-26T04:48:49;95487.50;;;16.19;100.00
8697;BME280;4385;48.848;8.924;2024-02-26T04:51:14;95486.81;;;16.16;100.00
8697;BME280;4385;48.848;8.924;2024-02-26T04:53:40;95502.88;;;16.16;100.00
8697;BME280;4385;48.848;8.924;2024-02-26T04:56:05;95500.41;;;16.15;100.00
8697;BME280;4385;48.848;8.924;2024-02-26T04:58:31;95503.84;;;16.14;100.00
8697;BME280;4385;48.848;8.924;2024-02-26T05:00:56;95512.38;;;16.13;100.00
8697;BME280;4385;48.848;8.924;2024-02-26T05:03:21;95503.97;;;16.11;100.00
8697;BME280;4385;48.848;8.924;2024-02-26T05:05:47;95507.44;;;16.10;100.00
8697;BME280;4385;48.848;8.924;2024-02-26T05:08:12;95504.88;;;16.10;100.00
8697;BME280;4385;48.848;8.924;2024-02-26T05:10:38;95509.97;;;16.10;100.00
8697;BME280;4385;48.848;8.924;2024-02-26T05:13:06;95512.50;;;16.10;100.00
8697;BME280;4385;48.848;8.924;2024-02-26T05:15:31;95526.09;;;16.08;100.00
8697;BME280;4385;48.848;8.924;2024-02-26T05:17:57;95524.38;;;16.09;100.00
8697;BME280;4385;48.848;8.924;2024-02-26T05:20:22;95525.28;;;16.08;100.00
8697;BME280;4385;48.848;8.924;2024-02-26T05:22:48;95526.97;;;16.07;100.00
8697;BME280;4385;48.848;8.924;2024-02-26T05:25:16;95524.44;;;16.07;100.00
8697;BME280;4385;48.848;8.924;2024-02-26T05:27:43;95527.88;;;16.06;100.00
8697;BME280;4385;48.848;8.924;2024-02-26T05:30:09;95540.59;;;16.06;100.00
8697;BME280;4385;48.848;8.924;2024-02-26T05:32:35;95543.13;;;16.06;100.00
8697;BME280;4385;48.848;8.924;2024-02-26T05:35:00;95542.22;;;16.07;100.00
8697;BME280;4385;48.848;8.924;2024-02-26T05:37:25;95544.00;;;16.05;100.00
8697;BME280;4385;48.848;8.924;2024-02-26T05:39:52;95548.22;;;16.06;100.00
8697;BME280;4385;48.848;8.924;2024-02-26T05:42:17;95555.06;;;16.04;100.00
8697;BME280;4385;48.848;8.924;2024-02-26T05:44:42;95557.59;;;16.04;100.00
8697;BME280;4385;48.848;8.924;2024-02-26T05:47:07;95557.72;;;16.01;100.00
8697;BME280;4385;48.848;8.924;2024-02-26T05:49:33;95557.72;;;16.01;100.00
8697;BME280;4385;48.848;8.924;2024-02-26T05:51:58;95561.97;;;16.01;100.00
8697;BME280;4385;48.848;8.924;2024-02-26T05:54:24;95556.09;;;16.00;100.00
8697;BME280;4385;48.848;8.924;2024-02-26T05:56:49;95552.78;;;15.98;100.00
8697;BME280;4385;48.848;8.924;2024-02-26T05:59:14;95559.50;;;15.99;100.00
8697;BME280;4385;48.848;8.924;2024-02-26T06:01:41;95557.81;;;16.00;100.00
8697;BME280;4385;48.848;8.924;2024-02-26T06:04:06;95556.09;;;16.00;100.00
8697;BME280;4385;48.848;8.924;2024-02-26T06:06:31;95559.38;;;16.02;100.00
8697;BME280;4385;48.848;8.924;2024-02-26T06:08:57;95563.72;;;16.00;100.00
8697;BME280;4385;48.848;8.924;2024-02-26T06:11:22;95562.88;;;16.00;100.00
8697;BME280;4385;48.848;8.924;2024-02-26T06:13:47;95558.75;;;15.97;100.00
8697;BME280;4385;48.848;8.924;2024-02-26T06:16:13;95552.88;;;15.95;100.00
8697;BME280;4385;48.848;8.924;2024-02-26T06:18:38;95556.22;;;15.95;100.00
8697;BME280;4385;48.848;8.924;2024-02-26T06:21:04;95553.66;;;15.97;100.00
8697;BME280;4385;48.848;8.924;2024-02-26T06:23:29;95557.06;;;15.96;100.00
8697;BME280;4385;48.848;8.924;2024-02-26T06:25:54;95562.97;;;15.96;100.00
8697;BME280;4385;48.848;8.924;2024-02-26T06:28:19;95568.13;;;15.95;100.00
8697;BME280;4385;48.848;8.924;2024-02-26T06:30:45;95565.59;;;15.95;100.00
8697;BME280;4385;48.848;8.924;2024-02-26T06:33:11;95575.75;;;15.95;100.00
8697;BME280;4385;48.848;8.924;2024-02-26T06:35:37;95582.59;;;15.93;100.00
8697;BME280;4385;48.848;8.924;2024-02-26T06:38:03;95577.50;;;15.93;100.00
8697;BME280;4385;48.848;8.924;2024-02-26T06:40:29;95585.19;;;15.91;100.00
8697;BME280;4385;48.848;8.924;2024-02-26T06:42:54;95580.97;;;15.92;100.00
8697;BME280;4385;48.848;8.924;2024-02-26T06:45:20;95585.19;;;15.91;100.00
8697;BME280;4385;48.848;8.924;2024-02-26T06:47:45;95592.00;;;15.91;100.00
8697;BME280;4385;48.848;8.924;2024-02-26T06:50:12;95601.28;;;15.92;100.00
8697;BME280;4385;48.848;8.924;2024-02-26T06:52:38;95601.28;;;15.92;100.00
8697;BME280;4385;48.848;8.924;2024-02-26T06:55:03;95604.69;;;15.91;100.00
8697;BME280;4385;48.848;8.924;2024-02-26T06:57:30;95608.13;;;15.90;100.00
8697;BME280;4385;48.848;8.924;2024-02-26T06:59:55;95611.56;;;15.89;100.00
8697;BME280;4385;48.848;8.924;2024-02-26T07:02:20;95611.56;;;15.89;100.00
8697;BME280;4385;48.848;8.924;2024-02-26T07:04:46;95627.69;;;15.88;100.00
8697;BME280;4385;48.848;8.924;2024-02-26T07:07:11;95622.59;;;15.88;100.00
8697;BME280;4385;48.848;8.924;2024-02-26T07:09:36;95628.56;;;15.87;100.00
8697;BME280;4385;48.848;8.924;2024-02-26T07:12:02;95630.34;;;15.84;100.00
8697;BME280;4385;48.848;8.924;2024-02-26T07:14:27;95628.69;;;15.83;100.00
8697;BME280;4385;48.848;8.924;2024-02-26T07:16:52;95629.53;;;15.84;100.00
8697;BME280;4385;48.848;8.924;2024-02-26T07:19:18;95626.16;;;15.83;100.00
8697;BME280;4385;48.848;8.924;2024-02-26T07:21:43;95633.78;;;15.83;100.00
8697;BME280;4385;48.848;8.924;2024-02-26T07:24:08;95637.22;;;15.82;100.00
8697;BME280;4385;48.848;8.924;2024-02-26T07:26:34;95635.53;;;15.81;100.00
8697;BME280;4385;48.848;8.924;2024-02-26T07:28:59;95628.75;;;15.82;100.00
8697;BME280;4385;48.848;8.924;2024-02-26T07:31:25;95633.91;;;15.80;100.00
8697;BME280;4385;48.848;8.924;2024-02-26T07:33:50;95635.59;;;15.80;100.00
8697;BME280;4385;48.848;8.924;2024-02-26T07:36:16;95633.91;;;15.80;100.00
8697;BME280;4385;48.848;8.924;2024-02-26T07:38:41;95638.16;;;15.80;100.00
8697;BME280;4385;48.848;8.924;2024-02-26T07:41:07;95622.91;;;15.80;100.00
8697;BME280;4385;48.848;8.924;2024-02-26T07:43:32;95626.28;;;15.80;100.00
8697;BME280;4385;48.848;8.924;2024-02-26T07:45:57;95630.59;;;15.78;100.00
8697;BME280;4385;48.848;8.924;2024-02-26T07:48:23;95630.66;;;15.77;100.00
8697;BME280;4385;48.848;8.924;2024-02-26T07:50:48;95630.66;;;15.77;100.00
8697;BME280;4385;48.848;8.924;2024-02-26T07:53:13;95636.63;;;15.76;100.00
8697;BME280;4385;48.848;8.924;2024-02-26T07:55:39;95627.31;;;15.76;100.00
8697;BME280;4385;48.848;8.924;2024-02-26T07:58:04;95633.25;;;15.75;100.00
8697;BME280;4385;48.848;8.924;2024-02-26T08:00:29;95629.06;;;15.74;100.00
8697;BME280;4385;48.848;8.924;2024-02-26T08:02:55;95628.25;;;15.74;100.00
8697;BME280;4385;48.848;8.924;2024-02-26T08:05:20;95635.78;;;15.75;100.00
8697;BME280;4385;48.848;8.924;2024-02-26T08:07:45;95634.16;;;15.74;100.00
8697;BME280;4385;48.848;8.924;2024-02-26T08:10:11;95631.63;;;15.74;100.00
8697;BME280;4385;48.848;8.924;2024-02-26T08:12:36;95634.16;;;15.74;100.00
8697;BME280;4385;48.848;8.924;2024-02-26T08:15:02;95633.31;;;15.74;100.00
8697;BME280;4385;48.848;8.924;2024-02-26T08:17:27;95635.00;;;15.75;100.00
8697;BME280;4385;48.848;8.924;2024-02-26T08:19:53;95635.78;;;15.75;100.00
8697;BME280;4385;48.848;8.924;2024-02-26T08:22:18;95636.69;;;15.74;100.00
8697;BME280;4385;48.848;8.924;2024-02-26T08:24:43;95632.50;;;15.73;100.00
8697;BME280;4385;48.848;8.924;2024-02-26T08:27:09;95639.22;;;15.74;100.00
8697;BME280;4385;48.848;8.924;2024-02-26T08:29:34;95642.59;;;15.75;100.00
8697;BME280;4385;48.848;8.924;2024-02-26T08:31:59;95649.38;;;15.74;100.00
8697;BME280;4385;48.848;8.924;2024-02-26T08:34:25;95649.38;;;15.74;100.00
8697;BME280;4385;48.848;8.924;2024-02-26T08:36:50;95652.81;;;15.73;100.00
8697;BME280;4385;48.848;8.924;2024-02-26T08:39:16;95661.19;;;15.75;100.00
8697;BME280;4385;48.848;8.924;2024-02-26T08:41:43;95661.19;;;15.75;100.00
8697;BME280;4385;48.848;8.924;2024-02-26T08:44:08;95663.78;;;15.74;100.00
8697;BME280;4385;48.848;8.924;2024-02-26T08:46:33;95664.63;;;15.74;100.00
8697;BME280;4385;48.848;8.924;2024-02-26T08:48:58;95669.69;;;15.74;100.00
8697;BME280;4385;48.848;8.924;2024-02-26T08:51:24;95667.94;;;15.76;100.00
8697;BME280;4385;48.848;8.924;2024-02-26T08:53:49;95666.28;;;15.75;100.00
8697;BME280;4385;48.848;8.924;2024-02-26T08:56:16;95665.47;;;15.75;100.00
8697;BME280;4385;48.848;8.924;2024-02-26T08:58:44;95667.09;;;15.76;100.00
8697;BME280;4385;48.848;8.924;2024-02-26T09:01:09;95668.81;;;15.75;100.00
8697;BME280;4385;48.848;8.924;2024-02-26T09:03:34;95674.78;;;15.74;100.00
8697;BME280;4385;48.848;8.924;2024-02-26T09:06:00;95669.59;;;15.77;100.00
8697;BME280;4385;48.848;8.924;2024-02-26T09:08:25;95676.44;;;15.75;100.00
8697;BME280;4385;48.848;8.924;2024-02-26T09:10:51;95677.31;;;15.74;100.00
8697;BME280;4385;48.848;8.924;2024-02-26T09:13:16;95673.16;;;15.73;100.00
8697;BME280;4385;48.848;8.924;2024-02-26T09:15:43;95668.88;;;15.74;100.00
8697;BME280;4385;48.848;8.924;2024-02-26T09:18:09;95669.69;;;15.74;100.00
8697;BME280;4385;48.848;8.924;2024-02-26T09:20:35;95664.63;;;15.74;100.00
8697;BME280;4385;48.848;8.924;2024-02-26T09:23:00;95659.53;;;15.74;100.00
8697;BME280;4385;48.848;8.924;2024-02-26T09:25:25;95657.78;;;15.76;100.00
8697;BME280;4385;48.848;8.924;2024-02-26T09:27:50;95663.66;;;15.77;100.00
8697;BME280;4385;48.848;8.924;2024-02-26T09:30:16;95674.66;;;15.77;100.00
8697;BME280;4385;48.848;8.924;2024-02-26T09:32:41;95678.09;;;15.76;100.00
8697;BME280;4385;48.848;8.924;2024-02-26T09:35:10;95668.81;;;15.75;100.00
8697;BME280;4385;48.848;8.924;2024-02-26T09:37:36;95673.03;;;15.76;100.00
8697;BME280;4385;48.848;8.924;2024-02-26T09:40:03;95674.66;;;15.77;100.00
8697;BME280;4385;48.848;8.924;2024-02-26T09:42:31;95672.13;;;15.77;100.00
8697;BME280;4385;48.848;8.924;2024-02-26T09:45:00;95670.34;;;15.79;100.00
8697;BME280;4385;48.848;8.924;2024-02-26T09:47:28;95673.75;;;15.78;100.00
8697;BME280;4385;48.848;8.924;2024-02-26T09:49:56;95678.84;;;15.78;100.00
8697;BME280;4385;48.848;8.924;2024-02-26T09:52:23;95678.91;;;15.77;100.00
8697;BME280;4385;48.848;8.924;2024-02-26T09:54:49;95686.59;;;15.75;100.00
8697;BME280;4385;48.848;8.924;2024-02-26T09:57:15;95693.34;;;15.76;100.00
8697;BME280;4385;48.848;8.924;2024-02-26T09:59:42;95689.97;;;15.76;100.00
8697;BME280;4385;48.848;8.924;2024-02-26T10:02:13;95684.03;;;15.75;100.00
8697;BME280;4385;48.848;8.924;2024-02-26T10:04:39;95693.41;;;15.75;100.00
8697;BME280;4385;48.848;8.924;2024-02-26T10:07:10;95689.97;;;15.76;100.00
8697;BME280;4385;48.848;8.924;2024-02-26T10:09:35;95685.84;;;15.73;100.00
8697;BME280;4385;48.848;8.924;2024-02-26T10:12:02;95697.69;;;15.73;100.00
8697;BME280;4385;48.848;8.924;2024-02-26T10:14:27;95687.53;;;15.73;100.00
8697;BME280;4385;48.848;8.924;2024-02-26T10:16:53;95682.47;;;15.73;100.00
8697;BME280;4385;48.848;8.924;2024-02-26T10:19:28;95689.19;;;15.74;100.00
8697;BME280;4385;48.848;8.924;2024-02-26T10:21:56;95689.97;;;15.76;100.00
8697;BME280;4385;48.848;8.924;2024-02-26T10:24:22;95691.59;;;15.77;100.00
8697;BME280;4385;48.848;8.924;2024-02-26T10:26:48;95694.97;;;15.77;100.00
8697;BME280;4385;48.848;8.924;2024-02-26T10:29:14;95702.53;;;15.79;100.00
8697;BME280;4385;48.848;8.924;2024-02-26T10:31:42;95700.00;;;15.79;100.00
8697;BME280;4385;48.848;8.924;2024-02-26T10:34:07;95705.06;;;15.79;100.00
8697;BME280;4385;48.848;8.924;2024-02-26T10:36:36;95710.09;;;15.80;100.00
8697;BME280;4385;48.848;8.924;2024-02-26T10:39:04;95711.00;;;15.79;100.00
8697;BME280;4385;48.848;8.924;2024-02-26T10:41:30;95709.31;;;15.78;100.00
8697;BME280;4385;48.848;8.924;2024-02-26T10:43:55;95708.44;;;15.79;100.00
8697;BME280;4385;48.848;8.924;2024-02-26T10:46:20;95709.25;;;15.80;100.00
8697;BME280;4385;48.848;8.924;2024-02-26T10:48:52;95708.44;;;15.79;100.00
8697;BME280;4385;48.848;8.924;2024-02-26T10:51:26;95713.53;;;15.79;100.00
8697;BME280;4385;48.848;8.924;2024-02-26T10:53:55;95723.69;;;15.79;100.00
8697;BME280;4385;48.848;8.924;2024-02-26T10:56:24;95720.31;;;15.79;100.00
8697;BME280;4385;48.848;8.924;2024-02-26T10:58:50;95729.63;;;15.78;100.00
8697;BME280;4385;48.848;8.924;2024-02-26T11:01:16;95727.09;;;15.78;100.00
8697;BME280;4385;48.848;8.924;2024-02-26T11:03:44;95725.44;;;15.77;100.00
8697;BME280;4385;48.848;8.924;2024-02-26T11:06:10;95730.53;;;15.77;100.00
8697;BME280;4385;48.848;8.924;2024-02-26T11:08:35;95724.56;;;15.78;100.00
8697;BME280;4385;48.848;8.924;2024-02-26T11:11:01;95728.75;;;15.79;100.00
8697;BME280;4385;48.848;8.924;2024-02-26T11:13:28;95732.16;;;15.78;100.00
8697;BME280;4385;48.848;8.924;2024-02-26T11:15:56;95738.91;;;15.79;100.00
8697;BME280;4385;48.848;8.924;2024-02-26T11:18:23;95736.31;;;15.81;100.00
8697;BME280;4385;48.848;8.924;2024-02-26T11:20:49;95726.97;;;15.81;100.00
8697;BME280;4385;48.848;8.924;2024-02-26T11:23:16;95726.97;;;15.81;100.00
8697;BME280;4385;48.848;8.924;2024-02-26T11:25:41;95719.28;;;15.83;100.00
8697;BME280;4385;48.848;8.924;2024-02-26T11:28:12;95719.28;;;15.83;100.00
8697;BME280;4385;48.848;8.924;2024-02-26T11:30:42;95727.75;;;15.83;100.00
8697;BME280;4385;48.848;8.924;2024-02-26T11:33:10;95725.22;;;15.83;100.00
8697;BME280;4385;48.848;8.924;2024-02-26T11:35:37;95715.94;;;15.82;100.00
8697;BME280;4385;48.848;8.924;2024-02-26T11:38:03;95720.97;;;15.84;100.00
8697;BME280;4385;48.848;8.924;2024-02-26T11:40:31;95722.59;;;15.85;100.00
8697;BME280;4385;48.848;8.924;2024-02-26T11:42:56;95720.97;;;15.84;100.00
8697;BME280;4385;48.848;8.924;2024-02-26T11:48:20;95725.22;;;15.83;100.00
8697;BME280;4385;48.848;8.924;2024-02-26T11:50:50;95725.22;;;15.83;100.00
8697;BME280;4385;48.848;8.924;2024-02-26T11:53:27;95716.69;;;15.84;100.00
8697;BME280;4385;48.848;8.924;2024-02-26T11:58:43;95725.09;;;15.87;100.00
8697;BME280;4385;48.848;8.924;2024-02-26T12:01:40;95731.81;;;15.88;100.00
8697;BME280;4385;48.848;8.924;2024-02-26T12:04:07;95725.09;;;15.87;100.00
8697;BME280;4385;48.848;8.924;2024-02-26T12:06:47;95731.81;;;15.88;100.00
8697;BME280;4385;48.848;8.924;2024-02-26T12:09:13;95738.56;;;15.89;100.00
8697;BME280;4385;48.848;8.924;2024-02-26T12:11:39;95738.63;;;15.87;100.00
8697;BME280;4385;48.848;8.924;2024-02-26T12:14:06;95735.25;;;15.87;100.00
8697;BME280;4385;48.848;8.924;2024-02-26T12:16:37;95734.34;;;15.88;100.00
8697;BME280;4385;48.848;8.924;2024-02-26T12:19:06;95744.56;;;15.86;100.00
8697;BME280;4385;48.848;8.924;2024-02-26T12:21:36;95742.09;;;15.84;100.00
8697;BME280;4385;48.848;8.924;2024-02-26T12:24:13;95742.94;;;15.85;100.00
8697;BME280;4385;48.848;8.924;2024-02-26T12:26:39;95743.75;;;15.86;100.00
8697;BME280;4385;48.848;8.924;2024-02-26T12:29:04;95743.75;;;15.86;100.00
8697;BME280;4385;48.848;8.924;2024-02-26T12:31:31;95746.31;;;15.86;100.00
8697;BME280;4385;48.848;8.924;2024-02-26T12:33:57;95751.38;;;15.86;100.00
8697;BME280;4385;48.848;8.924;2024-02-26T12:36:22;95743.75;;;15.86;100.00
8697;BME280;4385;48.848;8.924;2024-02-26T12:38:51;95750.47;;;15.87;100.00
8697;BME280;4385;48.848;8.924;2024-02-26T12:41:16;95747.09;;;15.86;100.00
8697;BME280;4385;48.848;8.924;2024-02-26T12:43:42;95742.88;;;15.87;100.00
8697;BME280;4385;48.848;8.924;2024-02-26T12:46:07;95755.56;;;15.87;100.00
8697;BME280;4385;48.848;8.924;2024-02-26T12:48:33;95755.56;;;15.87;100.00
8697;BME280;4385;48.848;8.924;2024-02-26T12:50:59;95755.56;;;15.87;100.00
8697;BME280;4385;48.848;8.924;2024-02-26T12:53:25;95747.09;;;15.86;100.00
8697;BME280;4385;48.848;8.924;2024-02-26T12:55:50;95753.84;;;15.87;100.00
8697;BME280;4385;48.848;8.924;2024-02-26T12:58:16;95750.47;;;15.87;100.00
8697;BME280;4385;48.848;8.924;2024-02-26T13:00:42;95757.31;;;15.84;100.00
8697;BME280;4385;48.848;8.924;2024-02-26T13:03:08;95759.06;;;15.84;100.00
8697;BME280;4385;48.848;8.924;2024-02-26T13:05:34;95762.41;;;15.84;100.00
8697;BME280;4385;48.848;8.924;2024-02-26T13:08:00;95759.00;;;15.86;100.00